createdAt,value
2022-10-18T00:00:25.807Z,95844.25
2022-10-18T00:02:53.472Z,95844.75
2022-10-18T00:05:21.132Z,95844.84
2022-10-18T00:07:48.737Z,95848.47
2022-10-18T00:10:16.474Z,95842.53
2022-10-18T00:15:14.382Z,95846.31
2022-10-18T00:17:42.040Z,95850.47
2022-10-18T00:20:10.900Z,95849.84
2022-10-18T00:22:39.965Z,95856.38
2022-10-18T00:25:09.258Z,95861.63
2022-10-18T00:27:37.306Z,95854.03
2022-10-18T00:30:07.645Z,95845.84
2022-10-18T00:32:37.670Z,95842.91
2022-10-18T00:35:06.434Z,95835.16
2022-10-18T00:37:34.676Z,95837.84
2022-10-18T00:40:02.844Z,95831.66
2022-10-18T00:42:32.478Z,95825.38
2022-10-18T00:45:20.133Z,95831.78
2022-10-18T00:47:51.586Z,95827.28
2022-10-18T00:50:20.708Z,95823.31
2022-10-18T00:52:50.614Z,95828.56
2022-10-18T00:55:18.854Z,95820.59
2022-10-18T00:57:46.772Z,95835.06
2022-10-18T01:00:15.992Z,95829.41
2022-10-18T01:02:45.339Z,95833.78
2022-10-18T01:05:14.342Z,95840.75
2022-10-18T01:08:07.801Z,95837.78
2022-10-18T01:10:43.507Z,95836.94
2022-10-18T01:13:25.624Z,95845.75
2022-10-18T01:15:59.252Z,95836.94
2022-10-18T01:18:30.306Z,95846.19
2022-10-18T01:21:10.369Z,95846.66
2022-10-18T01:23:50.898Z,95850.19
2022-10-18T01:26:29.062Z,95849.59
2022-10-18T01:29:06.221Z,95849.38
2022-10-18T01:31:39.313Z,95846.66
2022-10-18T01:34:09.692Z,95849.38
2022-10-18T01:36:39.419Z,95844.13
2022-10-18T01:39:09.528Z,95842.91
2022-10-18T01:41:38.659Z,95833.09
2022-10-18T01:44:08.848Z,95838.31
2022-10-18T01:46:38.567Z,95841.72
2022-10-18T01:49:06.345Z,95837.31
2022-10-18T01:51:34.583Z,95833.31
2022-10-18T01:54:02.371Z,95827.88
2022-10-18T01:56:36.541Z,95822.81
2022-10-18T01:59:13.468Z,95823.63
2022-10-18T02:01:49.523Z,95828.47
2022-10-18T02:04:23.623Z,95822.66
2022-10-18T02:06:56.445Z,95841.78
2022-10-18T02:09:32.816Z,95832.84
2022-10-18T02:12:01.340Z,95835.72
2022-10-18T02:14:29.197Z,95826.97
2022-10-18T02:16:59.801Z,95833.22
2022-10-18T02:19:29.805Z,95844.72
2022-10-18T02:21:58.773Z,95838.91
2022-10-18T02:24:30.185Z,95848.31
2022-10-18T02:26:57.970Z,95841.84
2022-10-18T02:29:26.107Z,95841.19
2022-10-18T02:31:59.743Z,95848.03
2022-10-18T02:34:30.936Z,95853.38
2022-10-18T02:37:00.033Z,95850.94
2022-10-18T02:39:31.014Z,95845.28
2022-10-18T02:41:59.565Z,95842.56
2022-10-18T02:44:28.108Z,95839.84
2022-10-18T02:46:55.863Z,95848.44
2022-10-18T02:49:25.212Z,95848.66
2022-10-18T02:51:52.919Z,95852.84
2022-10-18T02:54:20.637Z,95848.91
2022-10-18T02:56:48.253Z,95854.34
2022-10-18T02:59:16.135Z,95850.34
2022-10-18T03:01:43.987Z,95857.69
2022-10-18T03:04:11.673Z,95857.25
2022-10-18T03:06:40.820Z,95862.84
2022-10-18T03:09:08.581Z,95863.06
2022-10-18T03:11:36.299Z,95866.81
2022-10-18T03:14:04.223Z,95869.00
2022-10-18T03:16:31.918Z,95877.38
2022-10-18T03:18:59.598Z,95872.97
2022-10-18T03:21:27.328Z,95872.81
2022-10-18T03:23:56.503Z,95873.66
2022-10-18T03:26:24.137Z,95866.94
2022-10-18T03:28:51.907Z,95864.59
2022-10-18T03:31:19.852Z,95870.69
2022-10-18T03:33:47.684Z,95858.72
2022-10-18T03:36:15.493Z,95856.38
2022-10-18T03:38:43.442Z,95858.44
2022-10-18T03:41:12.561Z,95879.78
2022-10-18T03:43:40.241Z,95885.22
2022-10-18T03:46:08.021Z,95889.84
2022-10-18T03:48:35.682Z,95888.78
2022-10-18T03:51:03.343Z,95887.28
2022-10-18T03:53:31.081Z,95884.34
2022-10-18T03:55:58.784Z,95887.66
2022-10-18T03:58:27.886Z,95896.88
2022-10-18T04:00:56.182Z,95897.09
2022-10-18T04:03:24.398Z,95895.22
2022-10-18T04:05:52.146Z,95887.06
2022-10-18T04:08:20.164Z,95883.28
2022-10-18T04:10:48.061Z,95878.69
2022-10-18T04:13:15.879Z,95882.22
2022-10-18T04:15:45.671Z,95871.34
2022-10-18T04:18:13.360Z,95870.25
2022-10-18T04:20:41.032Z,95877.38
2022-10-18T04:23:08.717Z,95876.78
2022-10-18T04:25:36.476Z,95878.47
2022-10-18T04:28:04.696Z,95876.84
2022-10-18T04:30:32.387Z,95875.53
2022-10-18T04:33:01.461Z,95869.22
2022-10-18T04:35:29.117Z,95861.25
2022-10-18T04:37:56.784Z,95865.44
2022-10-18T04:40:24.575Z,95860.59
2022-10-18T04:42:52.300Z,95862.47
2022-10-18T04:45:19.975Z,95853.25
2022-10-18T04:47:47.667Z,95858.69
2022-10-18T04:50:16.984Z,95851.75
2022-10-18T04:52:44.712Z,95851.53
2022-10-18T04:55:12.480Z,95843.59
2022-10-18T04:57:40.192Z,95841.47
2022-10-18T05:00:08.553Z,95846.47
2022-10-18T05:02:36.232Z,95847.06
2022-10-18T05:05:04.745Z,95849.78
2022-10-18T05:07:33.824Z,95854.19
2022-10-18T05:10:01.488Z,95858.50
2022-10-18T05:12:29.357Z,95855.09
2022-10-18T05:14:57.500Z,95858.22
2022-10-18T05:17:25.234Z,95859.31
2022-10-18T05:19:52.885Z,95857.06
2022-10-18T05:22:20.562Z,95845.31
2022-10-18T05:24:49.599Z,95854.56
2022-10-18T05:27:17.268Z,95852.72
2022-10-18T05:29:44.936Z,95850.84
2022-10-18T05:32:12.719Z,95848.97
2022-10-18T05:34:40.511Z,95855.41
2022-10-18T05:37:08.281Z,95852.06
2022-10-18T05:39:35.983Z,95852.22
2022-10-18T05:42:05.030Z,95846.34
2022-10-18T05:44:32.765Z,95856.53
2022-10-18T05:47:00.371Z,95855.84
2022-10-18T05:49:28.205Z,95853.91
2022-10-18T05:51:55.990Z,95868.50
2022-10-18T05:54:23.690Z,95859.44
2022-10-18T05:56:51.420Z,95866.09
2022-10-18T05:59:20.457Z,95871.53
2022-10-18T06:01:48.096Z,95872.38
2022-10-18T06:04:17.816Z,95870.28
2022-10-18T06:06:45.489Z,95871.47
2022-10-18T06:09:13.173Z,95871.25
2022-10-18T06:11:40.828Z,95865.28
2022-10-18T06:14:08.956Z,95858.50
2022-10-18T06:16:38.000Z,95858.06
2022-10-18T06:19:05.834Z,95860.34
2022-10-18T06:21:33.501Z,95865.94
2022-10-18T06:24:01.671Z,95875.34
2022-10-18T06:26:29.641Z,95878.00
2022-10-18T06:28:57.706Z,95881.91
2022-10-18T06:31:25.459Z,95882.59
2022-10-18T06:33:54.573Z,95879.25
2022-10-18T06:36:23.229Z,95886.16
2022-10-18T06:38:51.248Z,95886.75
2022-10-18T06:41:19.273Z,95882.72
2022-10-18T06:43:49.758Z,95900.31
2022-10-18T06:46:17.511Z,95895.69
2022-10-18T06:48:45.228Z,95892.97
2022-10-18T06:51:15.221Z,95904.25
2022-10-18T06:53:53.453Z,95896.44
2022-10-18T06:56:30.672Z,95893.84
2022-10-18T07:01:31.053Z,95892.34
2022-10-18T07:03:58.867Z,95887.25
2022-10-18T07:06:28.009Z,95900.31
2022-10-18T07:08:56.212Z,95891.44
2022-10-18T07:11:26.002Z,95895.94
2022-10-18T07:14:00.310Z,95891.94
2022-10-18T07:16:28.203Z,95899.91
2022-10-18T07:18:56.180Z,95894.59
2022-10-18T07:21:25.440Z,95893.66
2022-10-18T07:23:54.937Z,95882.03
2022-10-18T07:26:25.249Z,95886.00
2022-10-18T07:28:55.486Z,95896.81
2022-10-18T07:31:23.583Z,95895.19
2022-10-18T07:33:51.705Z,95898.41
2022-10-18T07:36:21.187Z,95907.72
2022-10-18T07:38:48.916Z,95907.97
2022-10-18T07:41:17.960Z,95910.13
2022-10-18T07:43:47.348Z,95913.59
2022-10-18T07:46:16.174Z,95914.31
2022-10-18T07:48:44.234Z,95917.44
2022-10-18T07:51:12.354Z,95917.66
2022-10-18T07:53:40.582Z,95920.63
2022-10-18T07:56:11.890Z,95922.88
2022-10-18T07:58:40.968Z,95921.81
2022-10-18T08:01:09.781Z,95924.88
2022-10-18T08:03:38.315Z,95916.31
2022-10-18T08:06:09.045Z,95919.22
2022-10-18T08:08:37.586Z,95913.63
2022-10-18T08:11:06.876Z,95907.81
2022-10-18T08:13:34.604Z,95910.44
2022-10-18T08:16:05.075Z,95910.28
2022-10-18T08:18:32.997Z,95904.13
2022-10-18T08:21:00.805Z,95902.06
2022-10-18T08:23:28.462Z,95905.47
2022-10-18T08:25:56.398Z,95909.97
2022-10-18T08:28:24.109Z,95899.25
2022-10-18T08:30:51.780Z,95902.78
2022-10-18T08:33:20.776Z,95912.84
2022-10-18T08:35:56.052Z,95912.16
2022-10-18T08:38:23.680Z,95908.16
2022-10-18T08:40:51.435Z,95914.38
2022-10-18T08:43:25.970Z,95915.59
2022-10-18T08:45:54.898Z,95909.09
2022-10-18T08:48:28.648Z,95905.09
2022-10-18T08:50:57.602Z,95899.94
2022-10-18T08:53:28.837Z,95910.97
2022-10-18T08:55:59.178Z,95911.34
2022-10-18T08:58:30.828Z,95910.03
2022-10-18T09:01:05.468Z,95912.00
2022-10-18T09:03:51.942Z,95912.03
2022-10-18T09:06:23.622Z,95919.22
2022-10-18T09:09:02.618Z,95917.81
2022-10-18T09:11:42.953Z,95916.19
2022-10-18T09:14:30.004Z,95913.72
2022-10-18T09:17:05.128Z,95920.06
2022-10-18T09:19:55.219Z,95911.78
2022-10-18T09:22:26.835Z,95918.69
2022-10-18T09:25:03.534Z,95921.44
2022-10-18T09:27:37.098Z,95914.53
2022-10-18T09:30:09.089Z,95908.44
2022-10-18T09:32:46.775Z,95909.84
2022-10-18T09:35:18.273Z,95914.81
2022-10-18T09:37:46.526Z,95915.38
2022-10-18T09:40:19.015Z,95912.88
2022-10-18T09:42:54.183Z,95914.81
2022-10-18T09:45:29.082Z,95915.06
2022-10-18T09:48:04.479Z,95914.25
2022-10-18T09:50:38.463Z,95912.03
2022-10-18T09:53:13.169Z,95912.84
2022-10-18T09:55:45.853Z,95913.38
2022-10-18T09:58:14.900Z,95911.72
2022-10-18T10:00:49.692Z,95898.97
2022-10-18T10:03:17.340Z,95894.31
2022-10-18T10:05:46.499Z,95905.59
2022-10-18T10:08:14.165Z,95894.78
2022-10-18T10:10:48.035Z,95902.81
2022-10-18T10:13:22.127Z,95900.00
2022-10-18T10:15:54.449Z,95902.13
2022-10-18T10:18:23.145Z,95894.34
2022-10-18T10:20:53.908Z,95895.97
2022-10-18T10:23:23.088Z,95896.94
2022-10-18T10:25:53.679Z,95895.19
2022-10-18T10:28:23.469Z,95887.91
2022-10-18T10:30:51.690Z,95892.78
2022-10-18T10:33:35.012Z,95901.66
2022-10-18T10:36:07.950Z,95891.28
2022-10-18T10:38:35.631Z,95895.66
2022-10-18T10:41:03.276Z,95888.84
2022-10-18T10:43:37.695Z,95890.50
2022-10-18T10:46:09.057Z,95879.88
2022-10-18T10:48:53.768Z,95878.94
2022-10-18T10:51:31.947Z,95878.44
2022-10-18T10:54:01.769Z,95878.91
2022-10-18T10:56:31.426Z,95865.91
2022-10-18T10:59:07.717Z,95861.53
2022-10-18T11:01:36.403Z,95870.19
2022-10-18T11:04:23.059Z,95865.78
2022-10-18T11:06:58.999Z,95860.50
2022-10-18T11:09:38.205Z,95858.59
2022-10-18T11:12:14.779Z,95859.34
2022-10-18T11:14:45.517Z,95858.41
2022-10-18T11:17:19.254Z,95854.50
2022-10-18T11:20:09.657Z,95862.25
2022-10-18T11:22:43.324Z,95848.72
2022-10-18T11:25:14.560Z,95859.22
2022-10-18T11:27:44.301Z,95861.88
2022-10-18T11:30:32.276Z,95859.19
2022-10-18T11:33:06.695Z,95851.09
2022-10-18T11:35:40.523Z,95846.97
2022-10-18T11:38:19.398Z,95840.09
2022-10-18T11:40:55.220Z,95835.75
2022-10-18T11:43:30.217Z,95834.03
2022-10-18T11:46:02.137Z,95832.38
2022-10-18T11:48:43.504Z,95834.94
2022-10-18T11:51:16.002Z,95839.28
2022-10-18T11:53:52.115Z,95837.00
2022-10-18T11:56:25.129Z,95833.22
2022-10-18T11:59:07.453Z,95819.94
2022-10-18T12:01:40.590Z,95824.16
2022-10-18T12:04:11.477Z,95820.63
2022-10-18T12:06:41.299Z,95815.25
2022-10-18T12:09:17.670Z,95808.69
2022-10-18T12:11:50.216Z,95814.25
2022-10-18T12:14:27.133Z,95811.19
2022-10-18T12:17:20.379Z,95810.34
2022-10-18T12:19:45.727Z,95809.84
2022-10-18T12:22:15.958Z,95809.56
2022-10-18T12:24:44.992Z,95820.78
2022-10-18T12:27:14.971Z,95814.25
2022-10-18T12:29:50.699Z,95803.75
2022-10-18T12:32:21.200Z,95798.31
2022-10-18T12:34:51.204Z,95793.25
2022-10-18T12:37:33.541Z,95792.22
2022-10-18T12:40:10.187Z,95791.72
2022-10-18T12:42:44.059Z,95796.84
2022-10-18T12:45:25.412Z,95794.59
2022-10-18T12:47:53.268Z,95794.19
2022-10-18T12:50:30.103Z,95786.97
2022-10-18T12:53:08.010Z,95800.28
2022-10-18T12:55:40.847Z,95791.72
2022-10-18T12:58:27.158Z,95788.84
2022-10-18T13:00:57.329Z,95787.81
2022-10-18T13:03:53.963Z,95784.31
2022-10-18T13:06:22.499Z,95786.88
2022-10-18T13:09:22.011Z,95789.25
2022-10-18T13:11:49.834Z,95782.25
2022-10-18T13:14:35.436Z,95787.19
2022-10-18T13:17:19.730Z,95788.75
2022-10-18T13:20:20.467Z,95782.13
2022-10-18T13:22:55.222Z,95772.06
2022-10-18T13:25:28.580Z,95780.00
2022-10-18T13:28:00.396Z,95773.16
2022-10-18T13:30:32.683Z,95781.69
2022-10-18T13:33:09.514Z,95778.16
2022-10-18T13:35:58.353Z,95776.25
2022-10-18T13:38:50.465Z,95779.34
2022-10-18T13:41:21.399Z,95780.06
2022-10-18T13:44:12.349Z,95775.75
2022-10-18T13:47:13.850Z,95779.84
2022-10-18T13:49:55.982Z,95785.78
2022-10-18T13:52:34.433Z,95785.16
2022-10-18T13:55:13.877Z,95796.56
2022-10-18T13:57:48.917Z,95799.19
2022-10-18T14:00:37.562Z,95793.28
2022-10-18T14:03:55.678Z,95783.06
2022-10-18T14:06:19.281Z,95775.22
2022-10-18T14:08:50.408Z,95780.75
2022-10-18T14:11:26.181Z,95780.31
2022-10-18T14:13:57.152Z,95782.69
2022-10-18T14:16:32.087Z,95785.53
2022-10-18T14:19:06.390Z,95783.38
2022-10-18T14:21:38.585Z,95775.13
2022-10-18T14:24:16.056Z,95787.53
2022-10-18T14:26:43.670Z,95782.47
2022-10-18T14:29:18.066Z,95787.94
2022-10-18T14:31:52.882Z,95785.78
2022-10-18T14:34:20.532Z,95790.16
2022-10-18T14:36:49.798Z,95782.78
2022-10-18T14:39:21.074Z,95779.81
2022-10-18T14:41:50.448Z,95786.59
2022-10-18T14:44:21.538Z,95788.28
2022-10-18T14:46:50.740Z,95792.72
2022-10-18T14:49:19.159Z,95796.16
2022-10-18T14:51:49.250Z,95794.78
2022-10-18T14:54:19.362Z,95795.19
2022-10-18T14:56:47.184Z,95791.56
2022-10-18T14:59:19.977Z,95793.69
2022-10-18T15:01:53.820Z,95794.25
2022-10-18T15:04:26.279Z,95789.94
2022-10-18T15:06:56.245Z,95785.16
2022-10-18T15:09:24.795Z,95792.50
2022-10-18T15:11:54.731Z,95791.47
2022-10-18T15:14:23.970Z,95792.72
2022-10-18T15:16:51.801Z,95786.22
2022-10-18T15:19:30.739Z,95796.13
2022-10-18T15:22:30.229Z,95793.00
2022-10-18T15:25:07.637Z,95788.34
2022-10-18T15:27:37.473Z,95799.72
2022-10-18T15:30:11.063Z,95803.59
2022-10-18T15:32:40.340Z,95803.72
2022-10-18T15:35:09.755Z,95802.34
2022-10-18T15:37:39.263Z,95802.09
2022-10-18T15:40:33.086Z,95804.31
2022-10-18T15:43:03.420Z,95800.50
2022-10-18T15:45:38.241Z,95798.84
2022-10-18T15:48:21.153Z,95794.78
2022-10-18T15:50:50.407Z,95802.81
2022-10-18T15:53:37.848Z,95803.94
2022-10-18T15:56:07.303Z,95802.28
2022-10-18T15:58:45.286Z,95804.50
2022-10-18T16:01:19.646Z,95799.06
2022-10-18T16:03:48.038Z,95796.88
2022-10-18T16:06:18.225Z,95801.06
2022-10-18T16:08:50.966Z,95803.63
2022-10-18T16:11:20.489Z,95809.53
2022-10-18T16:13:48.808Z,95811.31
2022-10-18T16:16:20.466Z,95827.19
2022-10-18T16:18:48.731Z,95820.59
2022-10-18T16:21:20.725Z,95819.53
2022-10-18T16:23:48.523Z,95826.19
2022-10-18T16:26:17.309Z,95832.84
2022-10-18T16:28:45.823Z,95823.44
2022-10-18T16:31:18.956Z,95824.56
2022-10-18T16:33:46.908Z,95822.34
2022-10-18T16:36:15.938Z,95823.75
2022-10-18T16:38:44.039Z,95824.00
2022-10-18T16:41:13.274Z,95816.03
2022-10-18T16:43:41.231Z,95834.25
2022-10-18T16:46:10.899Z,95828.72
2022-10-18T16:48:40.111Z,95832.84
2022-10-18T16:51:07.879Z,95833.13
2022-10-18T16:53:35.578Z,95837.00
2022-10-18T16:56:04.778Z,95836.16
2022-10-18T16:58:34.259Z,95846.66
2022-10-18T17:01:04.167Z,95844.44
2022-10-18T17:03:34.564Z,95852.72
2022-10-18T17:06:03.853Z,95851.63
2022-10-18T17:08:31.564Z,95853.78
2022-10-18T17:11:01.716Z,95856.28
2022-10-18T17:13:29.536Z,95853.25
2022-10-18T17:15:57.210Z,95852.44
2022-10-18T17:18:27.578Z,95862.06
2022-10-18T17:20:56.545Z,95863.44
2022-10-18T17:23:25.662Z,95867.81
2022-10-18T17:26:05.292Z,95865.88
2022-10-18T17:28:38.378Z,95870.84
2022-10-18T17:31:07.415Z,95871.66
2022-10-18T17:33:35.081Z,95872.22
2022-10-18T17:36:02.859Z,95884.06
2022-10-18T17:38:31.971Z,95874.13
2022-10-18T17:40:59.917Z,95889.00
2022-10-18T17:43:28.849Z,95882.91
2022-10-18T17:45:57.321Z,95894.44
2022-10-18T17:48:25.547Z,95885.13
2022-10-18T17:50:53.264Z,95888.44
2022-10-18T17:53:22.892Z,95893.81
2022-10-18T17:55:52.041Z,95897.06
2022-10-18T17:58:19.660Z,95892.91
2022-10-18T18:00:47.295Z,95895.69
2022-10-18T18:03:14.990Z,95898.50
2022-10-18T18:05:42.703Z,95898.50
2022-10-18T18:08:10.340Z,95902.88
2022-10-18T18:10:38.060Z,95904.03
2022-10-18T18:13:07.135Z,95906.78
2022-10-18T18:15:34.777Z,95915.84
2022-10-18T18:18:02.475Z,95911.47
2022-10-18T18:20:30.150Z,95913.69
2022-10-18T18:22:57.874Z,95917.56
2022-10-18T18:25:25.519Z,95912.03
2022-10-18T18:27:53.158Z,95903.19
2022-10-18T18:30:23.109Z,95904.84
2022-10-18T18:32:50.717Z,95895.75
2022-10-18T18:35:18.570Z,95892.09
2022-10-18T18:37:46.258Z,95889.00
2022-10-18T18:40:13.938Z,95899.72
2022-10-18T18:42:41.609Z,95904.59
2022-10-18T18:45:09.521Z,95907.25
2022-10-18T18:47:39.683Z,95913.78
2022-10-18T18:50:08.228Z,95913.75
2022-10-18T18:52:36.094Z,95915.59
2022-10-18T18:55:03.962Z,95913.09
2022-10-18T18:57:31.891Z,95909.78
2022-10-18T18:59:59.739Z,95913.91
2022-10-18T19:02:27.458Z,95912.41
2022-10-18T19:04:56.483Z,95900.25
2022-10-18T19:07:24.124Z,95899.69
2022-10-18T19:09:52.099Z,95905.97
2022-10-18T19:12:21.313Z,95902.88
2022-10-18T19:14:49.107Z,95905.03
2022-10-18T19:17:16.814Z,95898.69
2022-10-18T19:19:44.783Z,95892.81
2022-10-18T19:22:13.930Z,95894.47
2022-10-18T19:24:41.616Z,95897.81
2022-10-18T19:27:12.402Z,95894.56
2022-10-18T19:29:41.374Z,95897.78
2022-10-18T19:32:12.037Z,95883.13
2022-10-18T19:34:40.440Z,95894.13
2022-10-18T19:37:09.396Z,95891.41
2022-10-18T19:39:38.815Z,95896.34
2022-10-18T19:42:08.909Z,95895.19
2022-10-18T19:44:37.815Z,95896.25
2022-10-18T19:47:06.220Z,95903.41
2022-10-18T19:49:34.240Z,95895.13
2022-10-18T19:52:01.886Z,95900.81
2022-10-18T19:54:29.751Z,95907.38
2022-10-18T19:56:58.904Z,95911.78
2022-10-18T19:59:27.217Z,95906.34
2022-10-18T20:01:55.023Z,95910.28
2022-10-18T20:04:22.797Z,95909.66
2022-10-18T20:06:50.519Z,95918.16
2022-10-18T20:09:20.644Z,95918.09
2022-10-18T20:11:48.654Z,95912.03
2022-10-18T20:14:17.770Z,95915.88
2022-10-18T20:16:45.453Z,95905.41
2022-10-18T20:19:13.171Z,95906.69
2022-10-18T20:21:40.886Z,95905.72
2022-10-18T20:24:09.298Z,95916.88
2022-10-18T20:26:37.056Z,95913.88
2022-10-18T20:29:05.371Z,95911.97
2022-10-18T20:31:38.275Z,95915.03
2022-10-18T20:34:07.881Z,95915.34
2022-10-18T20:36:35.974Z,95907.03
2022-10-18T20:39:04.960Z,95903.91
2022-10-18T20:41:34.023Z,95906.34
2022-10-18T20:44:03.059Z,95904.53
2022-10-18T20:46:33.417Z,95901.97
2022-10-18T20:49:03.308Z,95907.44
2022-10-18T20:51:30.930Z,95905.28
2022-10-18T20:53:58.895Z,95912.09
2022-10-18T20:56:27.440Z,95908.44
2022-10-18T20:58:57.096Z,95903.81
2022-10-18T21:01:26.358Z,95911.25
2022-10-18T21:03:55.490Z,95898.47
2022-10-18T21:06:25.799Z,95913.25
2022-10-18T21:08:54.378Z,95910.75
2022-10-18T21:11:22.155Z,95903.94
2022-10-18T21:13:53.209Z,95890.00
2022-10-18T21:16:21.160Z,95898.72
2022-10-18T21:18:49.778Z,95896.78
2022-10-18T21:21:18.770Z,95895.41
2022-10-18T21:23:48.522Z,95895.22
2022-10-18T21:26:17.725Z,95897.06
2022-10-18T21:28:46.022Z,95892.06
2022-10-18T21:31:15.920Z,95897.00
2022-10-18T21:33:44.196Z,95889.84
2022-10-18T21:36:12.608Z,95896.16
2022-10-18T21:38:40.402Z,95897.50
2022-10-18T21:41:13.328Z,95890.84
2022-10-18T21:43:42.202Z,95891.94
2022-10-18T21:46:10.964Z,95886.69
2022-10-18T21:48:39.126Z,95892.41
2022-10-18T21:51:08.373Z,95888.03
2022-10-18T21:53:36.753Z,95878.38
2022-10-18T21:56:06.872Z,95873.72
2022-10-18T21:58:36.192Z,95878.38
2022-10-18T22:01:08.132Z,95872.66
2022-10-18T22:03:36.405Z,95869.91
2022-10-18T22:06:07.503Z,95863.63
2022-10-18T22:08:35.513Z,95861.94
2022-10-18T22:11:04.068Z,95866.13
2022-10-18T22:13:31.915Z,95860.09
2022-10-18T22:16:02.832Z,95861.53
2022-10-18T22:18:30.984Z,95857.44
2022-10-18T22:21:00.946Z,95852.56
2022-10-18T22:23:32.395Z,95861.03
2022-10-18T22:26:03.574Z,95848.16
2022-10-18T22:28:31.251Z,95847.06
2022-10-18T22:30:59.124Z,95851.22
2022-10-18T22:33:28.167Z,95851.78
2022-10-18T22:35:55.808Z,95842.47
2022-10-18T22:38:23.446Z,95851.53
2022-10-18T22:40:51.820Z,95844.41
2022-10-18T22:43:19.478Z,95845.47
2022-10-18T22:45:47.090Z,95840.25
2022-10-18T22:48:14.773Z,95831.69
2022-10-18T22:50:43.774Z,95833.88
2022-10-18T22:53:11.455Z,95839.84
2022-10-18T22:55:39.147Z,95829.06
2022-10-18T22:58:06.813Z,95832.03
2022-10-18T23:00:34.549Z,95835.97
2022-10-18T23:03:02.237Z,95825.00
2022-10-18T23:05:29.877Z,95831.53
2022-10-18T23:07:58.915Z,95831.78
2022-10-18T23:10:26.600Z,95834.22
2022-10-18T23:12:54.228Z,95831.13
2022-10-18T23:15:21.852Z,95834.94
2022-10-18T23:17:50.057Z,95832.09
2022-10-18T23:20:17.726Z,95828.47
2022-10-18T23:22:45.399Z,95826.06
2022-10-18T23:25:14.578Z,95814.25
2022-10-18T23:30:12.032Z,95811.50
2022-10-18T23:32:40.250Z,95806.97
2022-10-18T23:35:08.521Z,95809.97
2022-10-18T23:37:36.648Z,95811.44
2022-10-18T23:40:04.942Z,95814.81
2022-10-18T23:42:34.050Z,95809.91
2022-10-18T23:45:01.697Z,95806.25
2022-10-18T23:47:29.468Z,95809.41
2022-10-18T23:49:58.850Z,95802.97
2022-10-18T23:52:26.516Z,95803.31
2022-10-18T23:54:54.125Z,95800.31
2022-10-18T23:57:21.794Z,95809.84
2022-10-18T23:59:50.744Z,95810.00
